createdAt,value
2017-01-18T00:00:25.796Z,929.17
2017-01-18T00:00:54.074Z,929.18
2017-01-18T00:01:22.294Z,929.18
2017-01-18T00:01:50.575Z,929.17
2017-01-18T00:02:18.791Z,929.18
2017-01-18T00:02:47.037Z,929.18
2017-01-18T00:03:15.183Z,929.19
2017-01-18T00:03:43.402Z,929.18
2017-01-18T00:04:11.594Z,929.2
2017-01-18T00:04:39.746Z,929.19
2017-01-18T00:05:07.949Z,929.19
2017-01-18T00:05:36.219Z,929.18
2017-01-18T00:06:04.385Z,929.18
2017-01-18T00:06:32.523Z,929.17
2017-01-18T00:07:00.689Z,929.18
2017-01-18T00:07:43.350Z,929.18
2017-01-18T00:08:11.515Z,929.18
2017-01-18T00:08:39.679Z,929.19
2017-01-18T00:09:07.935Z,929.17
2017-01-18T00:09:36.285Z,929.17
2017-01-18T00:10:04.462Z,929.18
2017-01-18T00:10:32.775Z,929.2
2017-01-18T00:11:01.062Z,929.2
2017-01-18T00:11:29.236Z,929.16
2017-01-18T00:11:57.415Z,929.17
2017-01-18T00:12:25.574Z,929.18
2017-01-18T00:12:53.859Z,929.18
2017-01-18T00:13:22.051Z,929.17
2017-01-18T00:13:50.231Z,929.19
2017-01-18T00:14:18.516Z,929.17
2017-01-18T00:14:46.725Z,929.15
2017-01-18T00:15:14.891Z,929.17
2017-01-18T00:15:43.074Z,929.2
2017-01-18T00:16:11.243Z,929.2
2017-01-18T00:16:39.423Z,929.2
2017-01-18T00:17:07.612Z,929.19
2017-01-18T00:17:35.804Z,929.2
2017-01-18T00:18:04.076Z,929.21
2017-01-18T00:18:32.239Z,929.22
2017-01-18T00:19:00.441Z,929.21
2017-01-18T00:19:28.696Z,929.21
2017-01-18T00:19:56.866Z,929.22
2017-01-18T00:20:25.044Z,929.23
2017-01-18T00:20:53.332Z,929.24
2017-01-18T00:21:21.527Z,929.26
2017-01-18T00:21:49.760Z,929.25
2017-01-18T00:22:17.996Z,929.27
2017-01-18T00:22:46.145Z,929.28
2017-01-18T00:23:14.323Z,929.28
2017-01-18T00:23:42.885Z,929.3
2017-01-18T00:24:11.382Z,929.31
2017-01-18T00:24:39.541Z,929.3
2017-01-18T00:25:07.698Z,929.32
2017-01-18T00:25:35.860Z,929.32
2017-01-18T00:26:04.100Z,929.3
2017-01-18T00:26:32.254Z,929.32
2017-01-18T00:27:00.446Z,929.35
2017-01-18T00:27:28.637Z,929.36
2017-01-18T00:27:56.817Z,929.37
2017-01-18T00:28:24.984Z,929.36
2017-01-18T00:28:53.172Z,929.38
2017-01-18T00:29:21.358Z,929.35
2017-01-18T00:29:49.550Z,929.39
2017-01-18T00:30:17.717Z,929.35
2017-01-18T00:30:45.886Z,929.38
2017-01-18T00:31:14.068Z,929.39
2017-01-18T00:31:42.237Z,929.4
2017-01-18T00:32:10.387Z,929.42
2017-01-18T00:32:38.568Z,929.4
2017-01-18T00:33:06.763Z,929.42
2017-01-18T00:33:34.963Z,929.39
2017-01-18T00:34:03.112Z,929.42
2017-01-18T00:34:31.291Z,929.41
2017-01-18T00:34:59.566Z,929.4
2017-01-18T00:35:27.707Z,929.41
2017-01-18T00:35:55.875Z,929.4
2017-01-18T00:36:24.079Z,929.43
2017-01-18T00:36:52.233Z,929.42
2017-01-18T00:37:20.412Z,929.44
2017-01-18T00:37:48.688Z,929.43
2017-01-18T00:38:16.872Z,929.42
2017-01-18T00:38:45.045Z,929.46
2017-01-18T00:39:13.215Z,929.45
2017-01-18T00:39:41.392Z,929.45
2017-01-18T00:40:09.686Z,929.42
2017-01-18T00:40:37.878Z,929.41
2017-01-18T00:41:06.141Z,929.45
2017-01-18T00:41:34.340Z,929.48
2017-01-18T00:42:02.513Z,929.47
2017-01-18T00:42:30.683Z,929.48
2017-01-18T00:42:58.862Z,929.49
2017-01-18T00:43:27.032Z,929.48
2017-01-18T00:43:55.212Z,929.5
2017-01-18T00:44:23.383Z,929.5
2017-01-18T00:44:51.531Z,929.5
2017-01-18T00:45:19.719Z,929.54
2017-01-18T00:45:47.921Z,929.46
2017-01-18T00:46:16.279Z,929.5
2017-01-18T00:46:44.431Z,929.52
2017-01-18T00:47:12.619Z,929.52
2017-01-18T00:47:40.817Z,929.55
2017-01-18T00:48:09.093Z,929.54
2017-01-18T00:48:37.260Z,929.54
2017-01-18T00:49:05.427Z,929.49
2017-01-18T00:49:33.630Z,929.51
2017-01-18T00:50:01.807Z,929.54
2017-01-18T00:50:29.974Z,929.54
2017-01-18T00:50:58.174Z,929.54
2017-01-18T00:51:26.342Z,929.54
2017-01-18T00:51:54.509Z,929.5
2017-01-18T00:52:22.664Z,929.6
2017-01-18T00:52:50.918Z,929.56
2017-01-18T00:53:19.088Z,929.55
2017-01-18T00:53:47.237Z,929.56
2017-01-18T00:54:15.392Z,929.55
2017-01-18T00:54:43.571Z,929.57
2017-01-18T00:55:11.735Z,929.58
2017-01-18T00:55:39.930Z,929.56
2017-01-18T00:56:08.079Z,929.53
2017-01-18T00:56:36.240Z,929.54
2017-01-18T00:57:04.413Z,929.53
2017-01-18T00:57:32.564Z,929.57
2017-01-18T00:58:00.704Z,929.54
2017-01-18T00:58:28.895Z,929.49
2017-01-18T00:58:57.055Z,929.53
2017-01-18T00:59:25.237Z,929.55
2017-01-18T00:59:53.398Z,929.54
2017-01-18T01:00:21.573Z,929.54
2017-01-18T01:00:49.723Z,929.52
2017-01-18T01:01:18.166Z,929.51
2017-01-18T01:01:46.725Z,929.53
2017-01-18T01:02:14.883Z,929.51
2017-01-18T01:02:43.030Z,929.52
2017-01-18T01:03:11.197Z,929.47
2017-01-18T01:03:39.492Z,929.52
2017-01-18T01:04:07.664Z,929.54
2017-01-18T01:04:35.922Z,929.5
2017-01-18T01:05:04.088Z,929.54
2017-01-18T01:05:32.287Z,929.51
2017-01-18T01:06:00.459Z,929.55
2017-01-18T01:06:28.622Z,929.56
2017-01-18T01:06:56.790Z,929.55
2017-01-18T01:07:24.965Z,929.56
2017-01-18T01:07:53.253Z,929.57
2017-01-18T01:08:21.410Z,929.59
2017-01-18T01:08:49.590Z,929.61
2017-01-18T01:09:17.773Z,929.61
2017-01-18T01:09:45.934Z,929.62
2017-01-18T01:10:14.084Z,929.64
2017-01-18T01:10:42.293Z,929.64
2017-01-18T01:11:10.546Z,929.62
2017-01-18T01:11:38.713Z,929.64
2017-01-18T01:12:07.036Z,929.68
2017-01-18T01:12:35.256Z,929.66
2017-01-18T01:13:03.461Z,929.62
2017-01-18T01:13:31.660Z,929.65
2017-01-18T01:13:59.857Z,929.64
2017-01-18T01:14:28.064Z,929.66
2017-01-18T01:14:56.209Z,929.66
2017-01-18T01:15:24.392Z,929.65
2017-01-18T01:15:52.598Z,929.64
2017-01-18T01:16:20.771Z,929.64
2017-01-18T01:16:48.942Z,929.61
2017-01-18T01:17:17.099Z,929.62
2017-01-18T01:17:45.292Z,929.62
2017-01-18T01:18:13.467Z,929.62
2017-01-18T01:18:41.627Z,929.65
2017-01-18T01:19:09.789Z,929.65
2017-01-18T01:19:37.948Z,929.66
2017-01-18T01:20:06.114Z,929.72
2017-01-18T01:20:34.303Z,929.72
2017-01-18T01:21:02.538Z,929.75
2017-01-18T01:21:30.735Z,929.74
2017-01-18T01:21:58.893Z,929.75
2017-01-18T01:22:27.049Z,929.76
2017-01-18T01:22:55.243Z,929.75
2017-01-18T01:23:23.414Z,929.8
2017-01-18T01:23:51.687Z,929.82
2017-01-18T01:24:19.883Z,929.83
2017-01-18T01:24:48.043Z,929.82
2017-01-18T01:25:16.194Z,929.83
2017-01-18T01:25:44.367Z,929.88
2017-01-18T01:26:12.537Z,929.89
2017-01-18T01:26:40.723Z,929.88
2017-01-18T01:27:08.899Z,929.89
2017-01-18T01:27:37.073Z,929.92
2017-01-18T01:28:05.340Z,929.91
2017-01-18T01:28:33.490Z,929.93
2017-01-18T01:29:01.639Z,929.95
2017-01-18T01:29:29.786Z,929.99
2017-01-18T01:29:57.965Z,930.03
2017-01-18T01:30:26.117Z,930
2017-01-18T01:30:54.258Z,930.05
2017-01-18T01:31:22.436Z,930.04
2017-01-18T01:31:50.603Z,930.04
2017-01-18T01:32:18.782Z,930.05
2017-01-18T01:32:46.940Z,930.03
2017-01-18T01:33:15.100Z,930.02
2017-01-18T01:33:43.258Z,930.01
2017-01-18T01:34:11.445Z,930
2017-01-18T01:34:39.621Z,930.02
2017-01-18T01:35:07.981Z,930.05
2017-01-18T01:35:36.204Z,930.12
2017-01-18T01:36:04.402Z,930.11
2017-01-18T01:36:32.616Z,930.19
2017-01-18T01:37:00.796Z,930.27
2017-01-18T01:37:28.971Z,930.35
2017-01-18T01:37:57.167Z,930.44
2017-01-18T01:38:25.417Z,930.52
2017-01-18T01:38:53.616Z,930.61
2017-01-18T01:39:21.777Z,930.7
2017-01-18T01:39:49.938Z,930.8
2017-01-18T01:40:18.191Z,930.89
2017-01-18T01:40:46.347Z,930.96
2017-01-18T01:41:14.521Z,931.02
2017-01-18T01:41:42.693Z,930.95
2017-01-18T01:42:10.969Z,930.93
2017-01-18T01:42:39.123Z,930.82
2017-01-18T01:43:07.300Z,930.73
2017-01-18T01:43:35.481Z,930.75
2017-01-18T01:44:03.651Z,930.74
2017-01-18T01:44:31.809Z,930.7
2017-01-18T01:45:00.048Z,930.71
2017-01-18T01:45:28.220Z,930.73
2017-01-18T01:45:56.419Z,930.75
2017-01-18T01:46:24.623Z,930.67
2017-01-18T01:46:52.781Z,930.67
2017-01-18T01:47:20.910Z,930.67
2017-01-18T01:47:49.083Z,930.65
2017-01-18T01:48:17.264Z,930.6
2017-01-18T01:48:45.442Z,930.62
2017-01-18T01:49:13.611Z,930.56
2017-01-18T01:49:41.884Z,930.57
2017-01-18T01:50:10.102Z,930.55
2017-01-18T01:50:38.276Z,930.48
2017-01-18T01:51:06.528Z,930.46
2017-01-18T01:51:34.725Z,930.43
2017-01-18T01:52:02.931Z,930.39
2017-01-18T01:52:31.108Z,930.4
2017-01-18T01:52:59.364Z,930.39
2017-01-18T01:53:27.547Z,930.34
2017-01-18T01:53:55.725Z,930.36
2017-01-18T01:54:23.905Z,930.37
2017-01-18T01:54:52.223Z,930.39
2017-01-18T01:55:20.643Z,930.42
2017-01-18T01:55:48.836Z,930.42
2017-01-18T01:56:16.985Z,930.34
2017-01-18T01:56:45.152Z,930.39
2017-01-18T01:57:13.347Z,930.38
2017-01-18T01:57:41.501Z,930.42
2017-01-18T01:58:09.693Z,930.44
2017-01-18T01:58:37.886Z,930.4
2017-01-18T01:59:06.097Z,930.4
2017-01-18T01:59:34.333Z,930.38
2017-01-18T02:00:02.587Z,930.34
2017-01-18T02:00:30.954Z,930.26
2017-01-18T02:00:59.200Z,930.34
2017-01-18T02:01:27.467Z,930.35
2017-01-18T02:01:55.745Z,930.37
2017-01-18T02:02:23.906Z,930.34
2017-01-18T02:02:52.200Z,930.34
2017-01-18T02:03:20.353Z,930.39
2017-01-18T02:03:48.634Z,930.38
2017-01-18T02:04:16.902Z,930.35
2017-01-18T02:04:45.070Z,930.39
2017-01-18T02:05:13.264Z,930.37
2017-01-18T02:05:41.424Z,930.39
2017-01-18T02:06:09.607Z,930.36
2017-01-18T02:06:37.797Z,930.36
2017-01-18T02:07:06.065Z,930.37
2017-01-18T02:07:34.238Z,930.38
2017-01-18T02:08:02.523Z,930.34
2017-01-18T02:08:30.666Z,930.34
2017-01-18T02:08:58.853Z,930.35
2017-01-18T02:09:27.051Z,930.34
2017-01-18T02:09:55.207Z,930.32
2017-01-18T02:10:23.368Z,930.33
2017-01-18T02:10:51.655Z,930.3
2017-01-18T02:11:19.857Z,930.32
2017-01-18T02:11:48.029Z,930.31
2017-01-18T02:12:16.185Z,930.28
2017-01-18T02:12:44.350Z,930.28
2017-01-18T02:13:12.552Z,930.28
2017-01-18T02:13:40.710Z,930.29
2017-01-18T02:14:08.862Z,930.27
2017-01-18T02:14:37.023Z,930.26
2017-01-18T02:15:05.179Z,930.24
2017-01-18T02:15:33.377Z,930.19
2017-01-18T02:16:01.546Z,930.22
2017-01-18T02:16:29.697Z,930.16
2017-01-18T02:16:57.868Z,930.14
2017-01-18T02:17:26.017Z,930.15
2017-01-18T02:17:54.224Z,930.14
2017-01-18T02:18:22.379Z,930.14
2017-01-18T02:18:50.580Z,930.14
2017-01-18T02:19:18.751Z,930.11
2017-01-18T02:19:46.907Z,930.1
2017-01-18T02:20:15.073Z,930.07
2017-01-18T02:20:43.331Z,930.07
2017-01-18T02:21:11.520Z,930.07
2017-01-18T02:21:39.679Z,930.08
2017-01-18T02:22:07.842Z,930.08
2017-01-18T02:22:36.006Z,930.08
2017-01-18T02:23:04.253Z,930.02
2017-01-18T02:23:32.425Z,930.07
2017-01-18T02:24:00.655Z,930.02
2017-01-18T02:24:28.825Z,930.05
2017-01-18T02:24:57.108Z,930
2017-01-18T02:25:25.283Z,930.05
2017-01-18T02:25:53.535Z,930.02
2017-01-18T02:26:21.731Z,929.97
2017-01-18T02:26:50.217Z,930.03
2017-01-18T02:27:18.364Z,929.98
2017-01-18T02:27:46.528Z,929.98
2017-01-18T02:28:14.683Z,929.97
2017-01-18T02:28:42.884Z,929.99
2017-01-18T02:29:11.081Z,929.98
2017-01-18T02:29:39.331Z,929.94
2017-01-18T02:30:07.619Z,929.93
2017-01-18T02:30:35.787Z,929.95
2017-01-18T02:31:05.361Z,929.96
2017-01-18T02:31:33.560Z,929.95
2017-01-18T02:32:01.840Z,929.93
2017-01-18T02:32:30.022Z,929.98
2017-01-18T02:32:58.205Z,929.97
2017-01-18T02:33:26.455Z,929.97
2017-01-18T02:33:54.606Z,929.98
2017-01-18T02:34:22.771Z,929.95
2017-01-18T02:34:50.967Z,929.97
2017-01-18T02:35:19.271Z,929.96
2017-01-18T02:35:47.441Z,929.99
2017-01-18T02:36:15.633Z,929.98
2017-01-18T02:36:43.803Z,929.97
2017-01-18T02:37:12.023Z,929.96
2017-01-18T02:37:40.222Z,929.97
2017-01-18T02:38:08.434Z,929.96
2017-01-18T02:38:36.715Z,929.95
2017-01-18T02:39:04.875Z,929.96
2017-01-18T02:39:33.054Z,929.95
2017-01-18T02:40:01.213Z,929.95
2017-01-18T02:40:29.373Z,929.95
2017-01-18T02:40:57.556Z,929.91
2017-01-18T02:41:25.728Z,929.91
2017-01-18T02:41:53.884Z,929.91
2017-01-18T02:42:22.070Z,929.95
2017-01-18T02:42:50.264Z,929.97
2017-01-18T02:43:18.511Z,929.92
2017-01-18T02:43:46.696Z,929.94
2017-01-18T02:44:14.851Z,929.92
2017-01-18T02:44:43.009Z,929.92
2017-01-18T02:45:11.156Z,929.93
2017-01-18T02:45:39.333Z,929.93
2017-01-18T02:46:07.493Z,929.92
2017-01-18T02:46:35.694Z,929.94
2017-01-18T02:47:03.886Z,929.94
2017-01-18T02:47:32.047Z,929.97
2017-01-18T02:48:00.240Z,929.92
2017-01-18T02:48:28.430Z,929.96
2017-01-18T02:48:56.662Z,929.97
2017-01-18T02:49:24.828Z,929.97
2017-01-18T02:49:52.981Z,929.97
2017-01-18T02:50:21.154Z,930.01
2017-01-18T02:50:49.380Z,929.96
2017-01-18T02:51:17.575Z,929.98
2017-01-18T02:51:45.754Z,929.99
2017-01-18T02:52:13.950Z,929.99
2017-01-18T02:52:42.150Z,930
2017-01-18T02:53:10.427Z,929.95
2017-01-18T02:53:38.594Z,929.98
2017-01-18T02:54:06.778Z,929.97
2017-01-18T02:54:34.954Z,929.95
2017-01-18T02:55:03.160Z,930
2017-01-18T02:55:31.321Z,929.97
2017-01-18T02:55:59.575Z,929.95
2017-01-18T02:56:27.739Z,929.95
2017-01-18T02:56:55.899Z,929.94
2017-01-18T02:57:24.067Z,929.93
2017-01-18T02:57:52.262Z,929.92
2017-01-18T02:58:20.448Z,929.92
2017-01-18T02:58:48.645Z,929.9
2017-01-18T02:59:16.844Z,929.91
2017-01-18T02:59:45.093Z,929.92
2017-01-18T03:00:13.266Z,929.91
2017-01-18T03:00:41.416Z,929.86
2017-01-18T03:01:09.602Z,929.86
2017-01-18T03:01:37.771Z,929.85
2017-01-18T03:02:06.019Z,929.84
2017-01-18T03:02:34.185Z,929.85
2017-01-18T03:03:02.648Z,929.83
2017-01-18T03:03:30.809Z,929.84
2017-01-18T03:03:59.007Z,929.82
2017-01-18T03:04:27.145Z,929.8
2017-01-18T03:04:55.399Z,929.79
2017-01-18T03:05:23.568Z,929.77
2017-01-18T03:05:51.800Z,929.77
2017-01-18T03:06:19.986Z,929.76
2017-01-18T03:06:48.191Z,929.77
2017-01-18T03:07:16.323Z,929.73
2017-01-18T03:07:44.493Z,929.74
2017-01-18T03:08:12.694Z,929.74
2017-01-18T03:08:40.874Z,929.68
2017-01-18T03:09:09.063Z,929.69
2017-01-18T03:09:37.242Z,929.7
2017-01-18T03:10:05.405Z,929.65
2017-01-18T03:10:33.633Z,929.66
2017-01-18T03:11:01.827Z,929.62
2017-01-18T03:11:30.007Z,929.64
2017-01-18T03:11:58.171Z,929.62
2017-01-18T03:12:26.355Z,929.62
2017-01-18T03:12:54.570Z,929.65
2017-01-18T03:13:22.725Z,929.59
2017-01-18T03:13:50.999Z,929.63
2017-01-18T03:14:19.184Z,929.63
2017-01-18T03:14:47.436Z,929.58
2017-01-18T03:15:15.600Z,929.55
2017-01-18T03:15:43.835Z,929.6
2017-01-18T03:16:12.018Z,929.58
2017-01-18T03:16:40.277Z,929.56
2017-01-18T03:17:08.451Z,929.58
2017-01-18T03:17:36.622Z,929.58
2017-01-18T03:18:04.778Z,929.52
2017-01-18T03:18:33.056Z,929.52
2017-01-18T03:19:01.237Z,929.48
2017-01-18T03:19:29.556Z,929.49
2017-01-18T03:19:57.778Z,929.49
2017-01-18T03:20:25.942Z,929.48
2017-01-18T03:20:54.233Z,929.49
2017-01-18T03:21:22.404Z,929.47
2017-01-18T03:21:50.657Z,929.44
2017-01-18T03:22:18.793Z,929.45
2017-01-18T03:22:47.060Z,929.45
2017-01-18T03:23:15.235Z,929.45
2017-01-18T03:23:43.409Z,929.43
2017-01-18T03:24:11.557Z,929.45
2017-01-18T03:24:39.709Z,929.4
2017-01-18T03:25:07.851Z,929.45
2017-01-18T03:25:36.031Z,929.41
2017-01-18T03:26:04.218Z,929.38
2017-01-18T03:26:32.439Z,929.38
2017-01-18T03:27:00.614Z,929.39
2017-01-18T03:27:28.788Z,929.39
2017-01-18T03:27:56.981Z,929.39
2017-01-18T03:28:25.178Z,929.41
2017-01-18T03:28:53.347Z,929.41
2017-01-18T03:29:21.494Z,929.42
2017-01-18T03:29:49.662Z,929.38
2017-01-18T03:30:17.845Z,929.44
2017-01-18T03:30:46.018Z,929.41
2017-01-18T03:31:14.169Z,929.44
2017-01-18T03:31:42.325Z,929.45
2017-01-18T03:32:10.494Z,929.4
2017-01-18T03:32:38.697Z,929.39
2017-01-18T03:33:06.833Z,929.44
2017-01-18T03:33:34.990Z,929.45
2017-01-18T03:34:03.185Z,929.41
2017-01-18T03:34:31.336Z,929.39
2017-01-18T03:34:59.582Z,929.41
2017-01-18T03:35:27.835Z,929.38
2017-01-18T03:35:56.000Z,929.37
2017-01-18T03:36:24.126Z,929.34
2017-01-18T03:36:52.410Z,929.35
2017-01-18T03:37:20.596Z,929.39
2017-01-18T03:37:48.759Z,929.33
2017-01-18T03:38:16.942Z,929.29
2017-01-18T03:38:45.086Z,929.29
2017-01-18T03:39:13.257Z,929.29
2017-01-18T03:39:41.414Z,929.26
2017-01-18T03:40:09.577Z,929.25
2017-01-18T03:40:37.759Z,929.22
2017-01-18T03:41:05.953Z,929.25
2017-01-18T03:41:34.154Z,929.22
2017-01-18T03:42:02.354Z,929.26
2017-01-18T03:42:30.704Z,929.23
2017-01-18T03:42:58.904Z,929.23
2017-01-18T03:43:27.118Z,929.25
2017-01-18T03:43:55.300Z,929.21
2017-01-18T03:44:23.505Z,929.22
2017-01-18T03:44:51.676Z,929.21
2017-01-18T03:45:19.844Z,929.23
2017-01-18T03:45:48.002Z,929.19
2017-01-18T03:46:16.185Z,929.21
2017-01-18T03:46:44.374Z,929.19
2017-01-18T03:47:12.527Z,929.2
2017-01-18T03:47:40.737Z,929.19
2017-01-18T03:48:08.968Z,929.2
2017-01-18T03:48:37.143Z,929.14
2017-01-18T03:49:05.312Z,929.15
2017-01-18T03:49:33.481Z,929.17
2017-01-18T03:50:01.670Z,929.17
2017-01-18T03:50:29.843Z,929.14
2017-01-18T03:50:58.059Z,929.11
2017-01-18T03:51:26.264Z,929.12
2017-01-18T03:51:54.423Z,929.12
2017-01-18T03:52:22.657Z,929.11
2017-01-18T03:52:52.060Z,929.09
2017-01-18T03:53:20.269Z,929.07
2017-01-18T03:53:48.472Z,929.07
2017-01-18T03:54:16.665Z,929.06
2017-01-18T03:54:44.851Z,929.06
2017-01-18T03:55:13.023Z,929.06
2017-01-18T03:55:41.209Z,929.06
2017-01-18T03:56:09.395Z,929.01
2017-01-18T03:56:37.597Z,929.04
2017-01-18T03:57:05.749Z,929.01
2017-01-18T03:57:33.908Z,929.02
2017-01-18T03:58:02.075Z,929.03
2017-01-18T03:58:30.252Z,928.98
2017-01-18T03:58:58.420Z,929
2017-01-18T03:59:26.571Z,929.01
2017-01-18T03:59:54.778Z,929.03
2017-01-18T04:00:23.060Z,929.01
2017-01-18T04:00:51.260Z,929
2017-01-18T04:01:19.418Z,929.02
2017-01-18T04:01:47.604Z,928.98
2017-01-18T04:02:15.776Z,928.98
2017-01-18T04:02:43.964Z,928.99
2017-01-18T04:03:12.137Z,929.01
2017-01-18T04:03:40.346Z,929
2017-01-18T04:04:08.534Z,928.96
2017-01-18T04:04:36.700Z,928.98
2017-01-18T04:05:04.948Z,928.97
2017-01-18T04:05:33.097Z,928.98
2017-01-18T04:06:01.268Z,928.98
2017-01-18T04:06:29.475Z,928.96
2017-01-18T04:06:57.655Z,928.97
2017-01-18T04:07:25.860Z,928.96
2017-01-18T04:07:54.076Z,928.93
2017-01-18T04:08:22.302Z,928.95
2017-01-18T04:08:50.478Z,928.94
2017-01-18T04:09:18.707Z,928.93
2017-01-18T04:09:47.196Z,928.94
2017-01-18T04:10:15.462Z,928.94
2017-01-18T04:10:43.674Z,928.94
2017-01-18T04:11:11.837Z,928.96
2017-01-18T04:11:40.125Z,928.93
2017-01-18T04:12:08.293Z,928.95
2017-01-18T04:12:36.474Z,928.92
2017-01-18T04:13:04.684Z,928.92
2017-01-18T04:13:32.847Z,928.94
2017-01-18T04:14:01.009Z,928.94
2017-01-18T04:14:30.367Z,928.89
2017-01-18T04:14:58.670Z,928.97
2017-01-18T04:15:26.870Z,928.97
2017-01-18T04:15:55.055Z,928.96
2017-01-18T04:16:23.225Z,928.91
2017-01-18T04:16:51.400Z,928.93
2017-01-18T04:17:19.549Z,928.94
2017-01-18T04:17:47.743Z,928.94
2017-01-18T04:18:15.944Z,928.95
2017-01-18T04:18:44.143Z,928.97
2017-01-18T04:19:12.283Z,928.92
2017-01-18T04:19:40.446Z,928.93
2017-01-18T04:20:08.626Z,928.92
2017-01-18T04:20:36.801Z,928.95
2017-01-18T04:21:04.952Z,928.92
2017-01-18T04:21:33.107Z,928.93
2017-01-18T04:22:01.293Z,928.89
2017-01-18T04:22:29.459Z,928.93
2017-01-18T04:22:57.631Z,928.84
2017-01-18T04:23:25.810Z,928.87
2017-01-18T04:23:53.995Z,928.88
2017-01-18T04:24:22.158Z,928.87
2017-01-18T04:24:50.407Z,928.88
2017-01-18T04:25:18.553Z,928.84
2017-01-18T04:25:46.921Z,928.86
2017-01-18T04:26:15.114Z,928.83
2017-01-18T04:26:43.266Z,928.8
2017-01-18T04:27:11.558Z,928.81
2017-01-18T04:27:39.720Z,928.83
2017-01-18T04:28:07.895Z,928.81
2017-01-18T04:28:36.045Z,928.79
2017-01-18T04:29:04.218Z,928.83
2017-01-18T04:29:32.416Z,928.82
2017-01-18T04:30:00.579Z,928.77
2017-01-18T04:30:28.744Z,928.77
2017-01-18T04:30:56.922Z,928.8
2017-01-18T04:31:25.157Z,928.79
2017-01-18T04:31:53.321Z,928.77
2017-01-18T04:32:21.586Z,928.81
2017-01-18T04:32:49.766Z,928.78
2017-01-18T04:33:17.902Z,928.76
2017-01-18T04:33:46.068Z,928.71
2017-01-18T04:34:14.590Z,928.74
2017-01-18T04:34:43.023Z,928.72
2017-01-18T04:35:11.214Z,928.72
2017-01-18T04:35:39.392Z,928.71
2017-01-18T04:36:07.538Z,928.72
2017-01-18T04:36:35.711Z,928.71
2017-01-18T04:37:03.895Z,928.64
2017-01-18T04:37:32.046Z,928.66
2017-01-18T04:38:00.210Z,928.67
2017-01-18T04:38:28.465Z,928.66
2017-01-18T04:38:56.658Z,928.69
2017-01-18T04:39:24.825Z,928.68
2017-01-18T04:39:52.961Z,928.63
2017-01-18T04:40:21.130Z,928.63
2017-01-18T04:40:49.304Z,928.64
2017-01-18T04:41:17.464Z,928.59
2017-01-18T04:41:45.648Z,928.64
2017-01-18T04:42:13.833Z,928.61
2017-01-18T04:42:42.011Z,928.64
2017-01-18T04:43:10.195Z,928.61
2017-01-18T04:43:38.435Z,928.61
2017-01-18T04:44:06.607Z,928.6
2017-01-18T04:44:34.844Z,928.6
2017-01-18T04:45:03.001Z,928.59
2017-01-18T04:45:31.255Z,928.58
2017-01-18T04:45:59.428Z,928.55
2017-01-18T04:46:27.610Z,928.57
2017-01-18T04:46:55.804Z,928.55
2017-01-18T04:47:23.961Z,928.59
2017-01-18T04:47:52.142Z,928.58
2017-01-18T04:48:20.296Z,928.57
2017-01-18T04:48:48.583Z,928.59
2017-01-18T04:49:19.017Z,928.54
2017-01-18T04:49:47.320Z,928.61
2017-01-18T04:50:15.509Z,928.57
2017-01-18T04:50:43.663Z,928.54
2017-01-18T04:51:11.975Z,928.55
2017-01-18T04:51:40.160Z,928.54
2017-01-18T04:52:08.332Z,928.57
2017-01-18T04:52:36.508Z,928.59
2017-01-18T04:53:04.681Z,928.58
2017-01-18T04:53:32.859Z,928.58
2017-01-18T04:54:01.022Z,928.56
2017-01-18T04:54:29.306Z,928.52
2017-01-18T04:54:57.459Z,928.54
2017-01-18T04:55:25.674Z,928.54
2017-01-18T04:55:53.959Z,928.53
2017-01-18T04:56:22.140Z,928.51
2017-01-18T04:56:50.292Z,928.53
2017-01-18T04:57:18.456Z,928.48
2017-01-18T04:57:46.629Z,928.51
2017-01-18T04:58:14.799Z,928.51
2017-01-18T04:58:42.982Z,928.52
2017-01-18T04:59:11.149Z,928.48
2017-01-18T04:59:39.320Z,928.47
2017-01-18T05:00:07.497Z,928.49
2017-01-18T05:00:35.619Z,928.47
2017-01-18T05:01:03.780Z,928.44
2017-01-18T05:01:31.951Z,928.47
2017-01-18T05:02:00.100Z,928.47
2017-01-18T05:02:28.307Z,928.46
2017-01-18T05:02:56.531Z,928.45
2017-01-18T05:03:24.711Z,928.48
2017-01-18T05:03:52.876Z,928.46
2017-01-18T05:04:21.074Z,928.47
2017-01-18T05:04:49.342Z,928.42
2017-01-18T05:05:17.506Z,928.44
2017-01-18T05:05:45.639Z,928.43
2017-01-18T05:06:13.831Z,928.44
2017-01-18T05:06:42.022Z,928.42
2017-01-18T05:07:10.168Z,928.44
2017-01-18T05:07:38.558Z,928.43
2017-01-18T05:08:06.765Z,928.43
2017-01-18T05:08:34.930Z,928.43
2017-01-18T05:09:03.092Z,928.43
2017-01-18T05:09:31.288Z,928.44
2017-01-18T05:09:59.556Z,928.41
2017-01-18T05:10:27.729Z,928.43
2017-01-18T05:10:55.879Z,928.4
2017-01-18T05:11:24.082Z,928.4
2017-01-18T05:11:52.255Z,928.4
2017-01-18T05:12:20.416Z,928.36
2017-01-18T05:12:48.606Z,928.39
2017-01-18T05:13:16.798Z,928.39
2017-01-18T05:13:44.966Z,928.36
2017-01-18T05:14:13.211Z,928.39
2017-01-18T05:14:41.368Z,928.4
2017-01-18T05:15:09.613Z,928.39
2017-01-18T05:15:37.775Z,928.34
2017-01-18T05:16:05.957Z,928.37
2017-01-18T05:16:34.132Z,928.34
2017-01-18T05:17:02.301Z,928.35
2017-01-18T05:17:30.477Z,928.33
2017-01-18T05:17:58.634Z,928.32
2017-01-18T05:18:26.829Z,928.32
2017-01-18T05:18:54.995Z,928.3
2017-01-18T05:19:23.156Z,928.33
2017-01-18T05:19:51.355Z,928.31
2017-01-18T05:20:19.546Z,928.32
2017-01-18T05:20:47.706Z,928.31
2017-01-18T05:21:15.879Z,928.3
2017-01-18T05:21:44.068Z,928.31
2017-01-18T05:22:12.289Z,928.3
2017-01-18T05:22:40.462Z,928.3
2017-01-18T05:23:08.605Z,928.32
2017-01-18T05:23:36.875Z,928.3
2017-01-18T05:24:05.037Z,928.3
2017-01-18T05:24:33.233Z,928.29
2017-01-18T05:25:01.404Z,928.28
2017-01-18T05:25:29.680Z,928.3
2017-01-18T05:25:57.841Z,928.3
2017-01-18T05:26:25.998Z,928.31
2017-01-18T05:26:54.183Z,928.3
2017-01-18T05:27:22.397Z,928.32
2017-01-18T05:27:50.543Z,928.33
2017-01-18T05:28:18.712Z,928.29
2017-01-18T05:28:46.864Z,928.29
2017-01-18T05:29:15.072Z,928.3
2017-01-18T05:29:43.252Z,928.3
2017-01-18T05:30:11.516Z,928.29
2017-01-18T05:30:39.697Z,928.3
2017-01-18T05:31:07.886Z,928.31
2017-01-18T05:31:36.030Z,928.26
2017-01-18T05:32:04.315Z,928.28
2017-01-18T05:32:32.479Z,928.27
2017-01-18T05:33:00.627Z,928.23
2017-01-18T05:33:28.789Z,928.27
2017-01-18T05:33:57.047Z,928.27
2017-01-18T05:34:25.250Z,928.29
2017-01-18T05:34:53.406Z,928.26
2017-01-18T05:35:21.589Z,928.28
2017-01-18T05:35:49.772Z,928.29
2017-01-18T05:36:17.947Z,928.3
2017-01-18T05:36:46.089Z,928.27
2017-01-18T05:37:14.248Z,928.27
2017-01-18T05:37:42.425Z,928.28
2017-01-18T05:38:10.610Z,928.28
2017-01-18T05:38:38.774Z,928.28
2017-01-18T05:39:06.968Z,928.23
2017-01-18T05:39:35.116Z,928.3
2017-01-18T05:40:03.355Z,928.26
2017-01-18T05:40:31.529Z,928.27
2017-01-18T05:40:59.790Z,928.27
2017-01-18T05:41:27.992Z,928.28
2017-01-18T05:41:56.170Z,928.28
2017-01-18T05:42:24.325Z,928.29
2017-01-18T05:42:52.504Z,928.29
2017-01-18T05:43:20.658Z,928.3
2017-01-18T05:43:48.925Z,928.34
2017-01-18T05:44:17.097Z,928.3
2017-01-18T05:44:45.268Z,928.28
2017-01-18T05:45:13.456Z,928.28
2017-01-18T05:45:41.631Z,928.3
2017-01-18T05:46:09.788Z,928.3
2017-01-18T05:46:37.965Z,928.28
2017-01-18T05:47:06.303Z,928.32
2017-01-18T05:47:34.539Z,928.29
2017-01-18T05:48:02.829Z,928.3
2017-01-18T05:48:31.003Z,928.31
2017-01-18T05:48:59.190Z,928.29
2017-01-18T05:49:27.387Z,928.3
2017-01-18T05:49:55.696Z,928.31
2017-01-18T05:50:23.873Z,928.27
2017-01-18T05:50:52.037Z,928.28
2017-01-18T05:51:20.230Z,928.28
2017-01-18T05:51:48.390Z,928.28
2017-01-18T05:52:16.620Z,928.27
2017-01-18T05:52:44.775Z,928.26
2017-01-18T05:53:13.055Z,928.28
2017-01-18T05:53:41.224Z,928.29